createdAt,value
2023-04-29T00:00:13.095Z,8.98
2023-04-29T00:01:17.032Z,8.07
2023-04-29T00:02:19.199Z,7.43
2023-04-29T00:03:25.465Z,8.05
2023-04-29T00:04:28.286Z,8.77
2023-04-29T00:05:31.687Z,7.43
2023-04-29T00:06:36.558Z,7.47
2023-04-29T00:07:38.208Z,8.85
2023-04-29T00:08:40.249Z,8.90
2023-04-29T00:09:42.325Z,10.13
2023-04-29T00:10:44.037Z,8.90
2023-04-29T00:11:47.670Z,9.23
2023-04-29T00:12:51.769Z,11.57
2023-04-29T00:13:54.653Z,9.73
2023-04-29T00:14:57.226Z,9.30
2023-04-29T00:16:00.505Z,8.52
2023-04-29T00:17:02.054Z,10.45
2023-04-29T00:18:05.358Z,7.70
2023-04-29T00:19:07.175Z,9.52
2023-04-29T00:20:11.572Z,9.13
2023-04-29T00:21:14.057Z,7.80
2023-04-29T00:22:15.763Z,8.57
2023-04-29T00:23:18.081Z,6.60
2023-04-29T00:24:21.267Z,7.05
2023-04-29T00:25:23.213Z,8.02
2023-04-29T00:26:26.052Z,9.30
2023-04-29T00:27:28.976Z,8.10
2023-04-29T00:28:33.357Z,8.10
2023-04-29T00:29:37.592Z,9.48
2023-04-29T00:30:40.176Z,7.93
2023-04-29T00:31:42.758Z,9.50
2023-04-29T00:32:45.649Z,7.85
2023-04-29T00:33:48.140Z,8.75
2023-04-29T00:34:54.925Z,7.80
2023-04-29T00:35:57.127Z,7.80
2023-04-29T00:36:59.854Z,8.40
2023-04-29T00:38:02.041Z,9.27
2023-04-29T00:39:03.703Z,9.45
2023-04-29T00:40:06.777Z,9.02
2023-04-29T00:41:09.556Z,9.10
2023-04-29T00:42:11.944Z,9.15
2023-04-29T00:43:13.574Z,9.40
2023-04-29T00:44:15.194Z,9.05
2023-04-29T00:45:16.953Z,8.98
2023-04-29T00:46:18.733Z,9.52
2023-04-29T00:47:20.307Z,11.30
2023-04-29T00:48:21.870Z,8.63
2023-04-29T00:49:23.470Z,8.90
2023-04-29T00:50:25.153Z,8.93
2023-04-29T00:51:27.276Z,9.57
2023-04-29T00:52:30.295Z,8.43
2023-04-29T00:53:31.971Z,8.32
2023-04-29T00:54:34.232Z,9.52
2023-04-29T00:55:35.877Z,9.30
2023-04-29T00:56:39.612Z,10.10
2023-04-29T00:57:41.334Z,8.65
2023-04-29T00:58:50.160Z,10.85
2023-04-29T00:59:54.503Z,9.27
2023-04-29T01:00:59.577Z,9.90
2023-04-29T01:02:05.631Z,8.52
2023-04-29T01:03:10.212Z,8.63
2023-04-29T01:04:12.310Z,8.77
2023-04-29T01:05:15.813Z,9.45
2023-04-29T01:06:35.549Z,8.52
2023-04-29T01:07:44.395Z,10.82
2023-04-29T01:09:12.166Z,8.93
2023-04-29T01:10:29.372Z,10.15
2023-04-29T01:11:34.900Z,8.40
2023-04-29T01:12:36.409Z,8.40
2023-04-29T01:13:56.785Z,8.40
2023-04-29T01:14:59.055Z,9.00
2023-04-29T01:16:21.055Z,10.23
2023-04-29T01:17:29.695Z,9.40
2023-04-29T01:18:59.036Z,9.02
2023-04-29T01:20:01.132Z,10.13
2023-04-29T01:21:03.122Z,10.50
2023-04-29T01:22:07.648Z,11.27
2023-04-29T01:23:09.198Z,10.13
2023-04-29T01:24:13.762Z,9.98
2023-04-29T01:25:18.993Z,10.23
2023-04-29T01:26:21.157Z,9.98
2023-04-29T01:27:48.198Z,9.65
2023-04-29T01:29:16.263Z,11.43
2023-04-29T01:30:18.087Z,12.57
2023-04-29T01:31:53.721Z,10.60
2023-04-29T01:33:01.022Z,10.07
2023-04-29T01:34:21.662Z,9.68
2023-04-29T01:35:34.794Z,10.32
2023-04-29T01:36:39.797Z,9.60
2023-04-29T01:37:56.352Z,10.25
2023-04-29T01:39:05.669Z,9.63
2023-04-29T01:40:08.061Z,8.82
2023-04-29T01:41:16.427Z,10.13
2023-04-29T01:42:36.748Z,9.15
2023-04-29T01:43:40.580Z,9.65
2023-04-29T01:44:43.818Z,10.43
2023-04-29T01:45:45.371Z,9.80
2023-04-29T01:46:50.819Z,9.95
2023-04-29T01:47:53.592Z,8.15
2023-04-29T01:48:56.179Z,10.00
2023-04-29T01:49:58.158Z,8.63
2023-04-29T01:51:00.138Z,10.20
2023-04-29T01:52:02.728Z,9.25
2023-04-29T01:53:07.526Z,13.18
2023-04-29T01:54:09.236Z,7.95
2023-04-29T01:55:11.327Z,9.77
2023-04-29T01:56:13.997Z,10.55
2023-04-29T01:57:19.330Z,10.35
2023-04-29T01:58:21.183Z,9.55
2023-04-29T01:59:23.080Z,10.20
2023-04-29T02:00:27.390Z,9.63
2023-04-29T02:01:29.088Z,11.40
2023-04-29T02:02:31.216Z,9.95
2023-04-29T02:03:33.210Z,9.93
2023-04-29T02:04:35.165Z,10.50
2023-04-29T02:05:36.846Z,10.95
2023-04-29T02:06:39.972Z,9.93
2023-04-29T02:07:42.660Z,10.60
2023-04-29T02:08:45.120Z,9.60
2023-04-29T02:09:47.863Z,8.05
2023-04-29T02:10:57.350Z,9.18
2023-04-29T02:11:59.087Z,10.23
2023-04-29T02:13:01.603Z,9.88
2023-04-29T02:14:04.105Z,10.25
2023-04-29T02:15:06.885Z,9.38
2023-04-29T02:16:14.297Z,9.35
2023-04-29T02:17:17.008Z,8.07
2023-04-29T02:18:19.107Z,9.02
2023-04-29T02:19:21.141Z,10.18
2023-04-29T02:20:23.158Z,10.07
2023-04-29T02:21:25.853Z,8.93
2023-04-29T02:22:28.103Z,9.10
2023-04-29T02:23:30.461Z,10.82
2023-04-29T02:24:32.190Z,10.05
2023-04-29T02:25:34.166Z,9.77
2023-04-29T02:26:38.604Z,9.50
2023-04-29T02:27:41.177Z,9.18
2023-04-29T02:28:43.100Z,9.32
2023-04-29T02:29:44.650Z,10.88
2023-04-29T02:30:48.754Z,10.77
2023-04-29T02:31:51.975Z,9.10
2023-04-29T02:32:54.612Z,9.55
2023-04-29T02:33:57.159Z,8.88
2023-04-29T02:34:59.102Z,8.90
2023-04-29T02:36:01.132Z,9.32
2023-04-29T02:37:03.501Z,8.70
2023-04-29T02:38:06.398Z,8.30
2023-04-29T02:39:08.109Z,7.40
2023-04-29T02:40:12.524Z,9.55
2023-04-29T02:41:17.460Z,10.98
2023-04-29T02:42:20.435Z,8.85
2023-04-29T02:43:22.116Z,8.52
2023-04-29T02:44:24.678Z,8.93
2023-04-29T02:45:29.478Z,8.45
2023-04-29T02:46:33.342Z,9.05
2023-04-29T02:47:35.160Z,8.18
2023-04-29T02:48:37.910Z,7.85
2023-04-29T02:49:39.475Z,9.02
2023-04-29T02:50:42.703Z,8.45
2023-04-29T02:51:45.277Z,7.97
2023-04-29T02:52:47.206Z,8.15
2023-04-29T02:53:49.849Z,9.65
2023-04-29T02:54:52.109Z,8.88
2023-04-29T02:55:54.148Z,9.32
2023-04-29T02:56:56.112Z,8.73
2023-04-29T02:57:59.135Z,7.95
2023-04-29T02:59:01.366Z,9.70
2023-04-29T03:00:04.113Z,9.15
2023-04-29T03:01:06.253Z,8.75
2023-04-29T03:02:08.215Z,8.05
2023-04-29T03:03:11.052Z,7.55
2023-04-29T03:04:14.016Z,9.48
2023-04-29T03:05:15.720Z,8.40
2023-04-29T03:06:18.375Z,8.13
2023-04-29T03:07:20.109Z,8.20
2023-04-29T03:08:22.410Z,9.05
2023-04-29T03:09:24.797Z,7.70
2023-04-29T03:10:27.139Z,8.50
2023-04-29T03:11:29.241Z,8.95
2023-04-29T03:12:33.044Z,8.32
2023-04-29T03:13:35.145Z,8.82
2023-04-29T03:14:38.687Z,8.98
2023-04-29T03:15:41.194Z,8.25
2023-04-29T03:16:44.458Z,8.23
2023-04-29T03:17:46.679Z,9.43
2023-04-29T03:18:50.018Z,7.80
2023-04-29T03:19:53.614Z,8.20
2023-04-29T03:20:56.136Z,8.20
2023-04-29T03:21:58.113Z,8.15
2023-04-29T03:23:01.045Z,8.50
2023-04-29T03:24:03.177Z,8.10
2023-04-29T03:25:06.244Z,9.23
2023-04-29T03:26:08.189Z,7.70
2023-04-29T03:27:11.408Z,7.50
2023-04-29T03:28:13.118Z,7.75
2023-04-29T03:29:16.077Z,7.45
2023-04-29T03:30:18.197Z,7.25
2023-04-29T03:31:21.499Z,9.17
2023-04-29T03:32:23.241Z,8.20
2023-04-29T03:33:24.788Z,7.32
2023-04-29T03:34:27.180Z,8.98
2023-04-29T03:35:30.600Z,6.40
2023-04-29T03:36:32.102Z,8.68
2023-04-29T03:37:37.717Z,6.78
2023-04-29T03:38:39.334Z,7.82
2023-04-29T03:39:42.148Z,6.57
2023-04-29T03:40:45.568Z,6.80
2023-04-29T03:41:47.383Z,6.63
2023-04-29T03:42:49.172Z,6.85
2023-04-29T03:43:51.926Z,8.93
2023-04-29T03:44:54.621Z,7.53
2023-04-29T03:45:56.177Z,7.70
2023-04-29T03:46:58.796Z,8.05
2023-04-29T03:48:01.369Z,9.18
2023-04-29T03:49:05.617Z,10.50
2023-04-29T03:50:08.661Z,9.10
2023-04-29T03:51:11.335Z,8.18
2023-04-29T03:52:13.358Z,9.15
2023-04-29T03:53:15.340Z,10.70
2023-04-29T03:54:17.372Z,9.57
2023-04-29T03:55:19.236Z,11.45
2023-04-29T03:56:23.117Z,9.85
2023-04-29T03:57:25.151Z,13.70
2023-04-29T03:58:28.244Z,13.25
2023-04-29T03:59:30.420Z,11.93
2023-04-29T04:00:33.428Z,10.18
2023-04-29T04:01:35.260Z,10.50
2023-04-29T04:02:37.333Z,11.27
2023-04-29T04:03:39.245Z,8.70
2023-04-29T04:04:41.673Z,10.15
2023-04-29T04:05:44.189Z,9.63
2023-04-29T04:06:51.313Z,8.50
2023-04-29T04:07:53.312Z,9.10
2023-04-29T04:08:54.826Z,10.00
2023-04-29T04:09:57.248Z,10.50
2023-04-29T04:11:03.288Z,8.70
2023-04-29T04:12:05.474Z,8.07
2023-04-29T04:13:07.214Z,8.00
2023-04-29T04:14:09.155Z,7.90
2023-04-29T04:15:11.395Z,9.30
2023-04-29T04:16:13.235Z,9.32
2023-04-29T04:17:15.845Z,10.43
2023-04-29T04:18:18.208Z,13.02
2023-04-29T04:19:21.076Z,14.65
2023-04-29T04:20:23.144Z,14.93
2023-04-29T04:21:25.788Z,13.80
2023-04-29T04:22:28.170Z,11.13
2023-04-29T04:23:30.188Z,9.75
2023-04-29T04:24:31.761Z,12.30
2023-04-29T04:25:34.146Z,10.88
2023-04-29T04:26:36.229Z,8.77
2023-04-29T04:27:38.912Z,7.70
2023-04-29T04:28:41.248Z,8.77
2023-04-29T04:29:42.870Z,8.23
2023-04-29T04:30:46.257Z,6.53
2023-04-29T04:31:49.422Z,6.17
2023-04-29T04:32:51.317Z,8.10
2023-04-29T04:33:53.184Z,9.05
2023-04-29T04:34:55.261Z,34.90
2023-04-29T04:35:57.392Z,22.77
2023-04-29T04:36:59.197Z,8.77
2023-04-29T04:38:00.714Z,9.07
2023-04-29T04:39:03.279Z,6.53
2023-04-29T04:40:05.410Z,6.85
2023-04-29T04:41:08.310Z,6.63
2023-04-29T04:42:11.304Z,24.55
2023-04-29T04:43:12.881Z,11.45
2023-04-29T04:44:14.587Z,7.70
2023-04-29T04:45:16.221Z,8.50
2023-04-29T04:46:17.847Z,7.80
2023-04-29T04:47:19.535Z,8.18
2023-04-29T04:48:21.098Z,12.35
2023-04-29T04:49:24.961Z,9.40
2023-04-29T04:50:29.857Z,7.65
2023-04-29T04:51:31.405Z,8.07
2023-04-29T04:52:32.972Z,8.32
2023-04-29T04:53:34.486Z,7.88
2023-04-29T04:54:36.031Z,8.10
2023-04-29T04:55:37.651Z,7.95
2023-04-29T04:56:39.208Z,6.70
2023-04-29T04:57:40.789Z,7.20
2023-04-29T04:58:42.319Z,8.50
2023-04-29T04:59:43.908Z,8.18
2023-04-29T05:00:46.050Z,6.07
2023-04-29T05:01:47.860Z,6.05
2023-04-29T05:02:49.554Z,7.68
2023-04-29T05:03:51.382Z,8.85
2023-04-29T05:04:53.025Z,8.35
2023-04-29T05:05:58.490Z,7.63
2023-04-29T05:07:00.060Z,7.80
2023-04-29T05:08:01.616Z,7.47
2023-04-29T05:09:03.395Z,6.43
2023-04-29T05:10:06.839Z,7.00
2023-04-29T05:11:15.555Z,8.90
2023-04-29T05:12:17.266Z,9.60
2023-04-29T05:13:18.952Z,7.00
2023-04-29T05:14:20.586Z,7.97
2023-04-29T05:15:22.155Z,7.95
2023-04-29T05:16:23.899Z,7.95
2023-04-29T05:17:25.673Z,7.13
2023-04-29T05:18:27.251Z,9.30
2023-04-29T05:19:28.801Z,6.43
2023-04-29T05:20:30.340Z,6.88
2023-04-29T05:21:31.886Z,9.18
2023-04-29T05:22:33.541Z,7.75
2023-04-29T05:23:35.136Z,7.38
2023-04-29T05:24:36.685Z,8.07
2023-04-29T05:25:38.216Z,5.65
2023-04-29T05:26:39.829Z,9.82
2023-04-29T05:27:41.389Z,6.93
2023-04-29T05:28:42.992Z,6.78
2023-04-29T05:29:44.632Z,6.78
2023-04-29T05:30:46.671Z,7.07
2023-04-29T05:31:48.216Z,8.25
2023-04-29T05:32:49.767Z,7.57
2023-04-29T05:33:51.360Z,7.47
2023-04-29T05:34:53.147Z,7.25
2023-04-29T05:35:54.686Z,9.23
2023-04-29T05:36:57.447Z,6.82
2023-04-29T05:37:58.973Z,7.30
2023-04-29T05:39:00.665Z,7.95
2023-04-29T05:40:02.205Z,7.20
2023-04-29T06:17:35.266Z,11.10
2023-04-29T06:18:38.669Z,11.05
2023-04-29T06:19:40.532Z,11.93
2023-04-29T06:20:42.093Z,10.70
2023-04-29T06:21:44.235Z,8.40
2023-04-29T06:22:46.442Z,8.80
2023-04-29T06:23:48.434Z,10.25
2023-04-29T06:24:50.077Z,9.63
2023-04-29T06:25:53.227Z,8.80
2023-04-29T06:26:55.925Z,8.75
2023-04-29T06:27:58.498Z,11.35
2023-04-29T06:29:01.521Z,10.52
2023-04-29T06:30:03.079Z,7.45
2023-04-29T06:31:04.739Z,8.50
2023-04-29T06:32:06.394Z,8.15
2023-04-29T06:33:08.382Z,8.20
2023-04-29T06:34:10.127Z,7.50
2023-04-29T06:35:11.744Z,8.27
2023-04-29T06:36:13.621Z,6.88
2023-04-29T06:37:16.487Z,7.30
2023-04-29T06:38:18.239Z,6.60
2023-04-29T06:39:20.820Z,6.90
2023-04-29T06:40:22.352Z,8.15
2023-04-29T06:41:25.314Z,7.72
2023-04-29T06:42:26.877Z,5.97
2023-04-29T06:43:28.468Z,5.88
2023-04-29T06:44:30.118Z,6.72
2023-04-29T06:45:32.877Z,7.80
2023-04-29T06:46:36.181Z,6.32
2023-04-29T06:47:38.030Z,6.38
2023-04-29T06:48:41.165Z,5.93
2023-04-29T06:49:46.430Z,5.22
2023-04-29T06:51:07.207Z,10.13
2023-04-29T06:52:09.412Z,6.13
2023-04-29T06:53:12.534Z,5.85
2023-04-29T06:54:14.393Z,5.80
2023-04-29T06:55:17.194Z,5.65
2023-04-29T06:56:19.264Z,6.63
2023-04-29T06:57:21.504Z,6.63
2023-04-29T06:58:23.297Z,5.68
2023-04-29T06:59:30.295Z,5.35
2023-04-29T07:00:32.404Z,7.15
2023-04-29T07:01:34.876Z,5.85
2023-04-29T07:02:39.276Z,6.32
2023-04-29T07:03:42.589Z,6.88
2023-04-29T07:04:45.289Z,8.80
2023-04-29T07:05:48.616Z,5.53
2023-04-29T07:06:51.283Z,5.93
2023-04-29T07:07:54.360Z,6.25
2023-04-29T07:08:57.032Z,5.03
2023-04-29T07:09:59.253Z,6.32
2023-04-29T07:11:00.954Z,5.80
2023-04-29T07:12:02.837Z,5.40
2023-04-29T07:13:05.768Z,5.90
2023-04-29T07:14:08.779Z,5.45
2023-04-29T07:15:10.670Z,5.85
2023-04-29T07:16:20.188Z,5.80
2023-04-29T07:17:22.089Z,5.30
2023-04-29T07:18:23.768Z,5.97
2023-04-29T07:19:25.431Z,5.50
2023-04-29T07:20:29.736Z,5.40
2023-04-29T07:21:31.449Z,5.10
2023-04-29T07:22:32.998Z,5.43
2023-04-29T07:23:34.590Z,5.77
2023-04-29T07:24:36.174Z,5.10
2023-04-29T07:25:37.739Z,4.68
2023-04-29T07:26:39.242Z,4.65
2023-04-29T07:27:40.802Z,5.22
2023-04-29T07:28:42.637Z,5.75
2023-04-29T07:29:44.175Z,5.82
2023-04-29T07:30:45.738Z,5.10
2023-04-29T07:31:47.380Z,5.18
2023-04-29T07:32:49.075Z,5.28
2023-04-29T07:33:50.687Z,5.80
2023-04-29T07:34:53.300Z,5.80
2023-04-29T07:35:55.048Z,6.15
2023-04-29T07:36:57.483Z,4.90
2023-04-29T07:37:58.993Z,5.05
2023-04-29T07:39:00.611Z,4.63
2023-04-29T07:40:02.190Z,4.28
2023-04-29T07:41:04.774Z,4.55
2023-04-29T07:42:06.600Z,4.63
2023-04-29T07:43:09.454Z,4.95
2023-04-29T07:44:11.153Z,5.60
2023-04-29T07:45:14.063Z,4.88
2023-04-29T07:46:17.376Z,5.97
2023-04-29T07:47:18.927Z,5.75
2023-04-29T07:48:21.411Z,5.70
2023-04-29T07:49:23.314Z,5.15
2023-04-29T07:50:24.926Z,4.55
2023-04-29T07:51:29.230Z,5.72
2023-04-29T07:52:31.011Z,5.75
2023-04-29T07:53:32.677Z,5.72
2023-04-29T07:54:34.243Z,4.40
2023-04-29T07:55:37.319Z,5.63
2023-04-29T07:56:38.866Z,4.93
2023-04-29T07:57:40.434Z,6.28
2023-04-29T07:58:42.306Z,5.68
2023-04-29T07:59:43.920Z,6.03
2023-04-29T08:00:45.531Z,5.80
2023-04-29T08:01:47.225Z,6.28
2023-04-29T08:02:55.643Z,4.35
2023-04-29T08:03:57.663Z,5.55
2023-04-29T08:05:00.001Z,5.28
2023-04-29T08:06:02.629Z,4.97
2023-04-29T08:07:04.502Z,5.57
2023-04-29T08:08:06.177Z,5.60
2023-04-29T08:09:08.059Z,5.97
2023-04-29T08:10:09.960Z,4.40
2023-04-29T08:11:15.889Z,5.57
2023-04-29T08:12:17.548Z,5.40
2023-04-29T08:13:19.115Z,4.63
2023-04-29T08:14:20.802Z,4.57
2023-04-29T08:15:22.455Z,4.95
2023-04-29T08:16:26.356Z,5.20
2023-04-29T08:17:28.125Z,5.70
2023-04-29T08:18:30.462Z,4.60
2023-04-29T08:19:33.313Z,6.20
2023-04-29T08:20:37.137Z,6.10
2023-04-29T08:21:40.087Z,5.30
2023-04-29T08:22:41.692Z,4.67
2023-04-29T08:23:44.517Z,5.05
2023-04-29T08:24:46.412Z,4.97
2023-04-29T08:25:52.030Z,4.93
2023-04-29T08:26:54.366Z,5.70
2023-04-29T08:27:56.333Z,4.45
2023-04-29T08:28:57.912Z,4.78
2023-04-29T08:29:59.444Z,5.00
2023-04-29T08:31:01.056Z,4.00
2023-04-29T08:32:05.045Z,4.70
2023-04-29T08:33:06.874Z,5.43
2023-04-29T08:34:08.401Z,4.93
2023-04-29T08:35:10.087Z,5.22
2023-04-29T08:36:11.885Z,5.22
2023-04-29T08:37:13.568Z,3.90
2023-04-29T08:38:15.169Z,5.10
2023-04-29T08:39:16.925Z,4.40
2023-04-29T08:40:18.565Z,5.80
2023-04-29T08:41:20.170Z,3.75
2023-04-29T08:42:30.732Z,4.63
2023-04-29T08:43:35.512Z,4.40
2023-04-29T08:44:37.175Z,5.65
2023-04-29T08:45:39.855Z,4.55
2023-04-29T08:46:41.711Z,4.22
2023-04-29T08:47:43.795Z,5.13
2023-04-29T08:48:45.934Z,4.63
2023-04-29T08:49:47.683Z,4.97
2023-04-29T08:50:49.280Z,4.47
2023-04-29T08:51:51.929Z,4.65
2023-04-29T08:52:53.426Z,4.30
2023-04-29T08:53:56.581Z,4.05
2023-04-29T08:55:03.112Z,5.68
2023-04-29T08:56:09.269Z,4.88
2023-04-29T08:57:11.767Z,4.22
2023-04-29T08:58:14.094Z,5.13
2023-04-29T08:59:17.307Z,5.57
2023-04-29T09:00:19.855Z,5.00
2023-04-29T09:01:23.270Z,5.47
2023-04-29T09:02:26.055Z,6.63
2023-04-29T09:03:31.838Z,5.43
2023-04-29T09:04:34.350Z,5.78
2023-04-29T09:05:36.703Z,7.07
2023-04-29T09:06:38.544Z,5.78
2023-04-29T09:07:41.341Z,5.28
2023-04-29T09:08:43.092Z,4.88
2023-04-29T09:09:44.648Z,5.30
2023-04-29T09:10:46.196Z,4.63
2023-04-29T09:11:47.820Z,7.03
2023-04-29T09:12:49.449Z,5.75
2023-04-29T09:13:50.957Z,6.00
2023-04-29T09:14:52.700Z,6.32
2023-04-29T09:15:54.520Z,5.15
2023-04-29T09:16:56.216Z,5.75
2023-04-29T09:17:58.415Z,5.85
2023-04-29T09:19:00.397Z,5.22
2023-04-29T09:20:01.957Z,6.13
2023-04-29T09:21:23.097Z,6.53
2023-04-29T09:22:25.436Z,5.93
2023-04-29T09:23:37.046Z,5.45
2023-04-29T09:24:40.030Z,5.55
2023-04-29T09:25:41.592Z,7.15
2023-04-29T09:26:43.626Z,6.15
2023-04-29T09:27:45.345Z,6.85
2023-04-29T09:28:49.960Z,5.85
2023-04-29T09:30:01.174Z,39.90
2023-04-29T09:31:06.596Z,7.00
2023-04-29T09:32:23.326Z,5.32
2023-04-29T09:33:28.634Z,5.43
2023-04-29T09:34:31.596Z,5.22
2023-04-29T09:35:34.781Z,5.43
2023-04-29T09:36:42.527Z,3.83
2023-04-29T09:37:45.368Z,5.25
2023-04-29T09:38:58.553Z,4.50
2023-04-29T09:40:02.176Z,6.43
2023-04-29T09:41:09.735Z,5.53
2023-04-29T09:42:11.514Z,5.63
2023-04-29T09:43:14.533Z,5.07
2023-04-29T09:44:16.774Z,5.63
2023-04-29T09:45:32.528Z,9.20
2023-04-29T09:46:34.884Z,6.18
2023-04-29T09:47:37.325Z,5.78
2023-04-29T09:48:39.926Z,4.90
2023-04-29T09:49:45.530Z,5.18
2023-04-29T09:56:03.925Z,5.85
2023-04-29T09:57:06.369Z,4.32
2023-04-29T09:58:08.351Z,6.97
2023-04-29T09:59:09.928Z,5.40
2023-04-29T10:00:13.609Z,5.35
2023-04-29T10:01:20.195Z,4.97
2023-04-29T10:02:24.022Z,5.65
2023-04-29T10:03:26.201Z,6.28
2023-04-29T10:04:28.495Z,5.40
2023-04-29T10:05:30.896Z,5.88
2023-04-29T10:06:32.492Z,6.32
2023-04-29T10:07:34.195Z,6.72
2023-04-29T10:08:36.396Z,5.97
2023-04-29T10:09:39.992Z,4.80
2023-04-29T10:10:42.711Z,16.13
2023-04-29T10:11:46.382Z,5.75
2023-04-29T10:12:48.539Z,5.15
2023-04-29T10:13:52.354Z,5.57
2023-04-29T10:15:04.805Z,4.60
2023-04-29T10:16:35.671Z,5.65
2023-04-29T10:17:44.203Z,5.43
2023-04-29T10:18:49.724Z,5.03
2023-04-29T10:20:05.959Z,5.28
2023-04-29T10:21:12.115Z,5.45
2023-04-29T10:22:19.436Z,5.35
2023-04-29T10:23:23.816Z,5.28
2023-04-29T10:24:25.772Z,6.00
2023-04-29T10:25:29.331Z,5.30
2023-04-29T10:26:32.254Z,4.85
2023-04-29T10:27:34.437Z,5.00
2023-04-29T10:28:38.133Z,4.65
2023-04-29T10:29:40.141Z,5.68
2023-04-29T10:30:43.863Z,4.95
2023-04-29T10:31:46.925Z,6.20
2023-04-29T10:32:52.004Z,5.07
2023-04-29T10:33:56.224Z,6.13
2023-04-29T10:34:59.383Z,6.07
2023-04-29T10:36:03.011Z,4.85
2023-04-29T10:37:05.061Z,4.95
2023-04-29T10:38:15.609Z,4.97
2023-04-29T10:39:29.291Z,6.03
2023-04-29T10:40:42.273Z,5.65
2023-04-29T10:41:48.143Z,5.80
2023-04-29T10:42:50.992Z,5.85
2023-04-29T10:43:53.617Z,4.28
2023-04-29T10:45:14.322Z,4.50
2023-04-29T10:48:24.315Z,6.90
2023-04-29T10:49:33.777Z,5.18
2023-04-29T10:50:35.458Z,5.22
2023-04-29T10:51:44.035Z,5.45
2023-04-29T10:52:52.763Z,6.60
2023-04-29T10:54:01.885Z,5.43
2023-04-29T10:55:04.601Z,5.70
2023-04-29T10:56:09.044Z,5.53
2023-04-29T10:57:20.342Z,5.45
2023-04-29T10:58:40.778Z,5.30
2023-04-29T10:59:42.323Z,5.25
2023-04-29T11:00:43.854Z,4.88
2023-04-29T11:01:46.997Z,4.80
2023-04-29T11:02:48.689Z,6.28
2023-04-29T11:03:55.108Z,4.68
2023-04-29T11:05:12.779Z,9.35
2023-04-29T11:06:15.062Z,6.28
2023-04-29T11:07:29.691Z,8.10
2023-04-29T11:08:31.836Z,4.80
2023-04-29T11:09:35.442Z,4.88
2023-04-29T11:10:37.761Z,5.40
2023-04-29T11:11:46.825Z,6.45
2023-04-29T11:12:48.529Z,4.63
2023-04-29T11:13:50.552Z,4.93
2023-04-29T11:14:52.370Z,4.60
2023-04-29T11:16:10.870Z,5.70
2023-04-29T11:17:15.496Z,6.75
2023-04-29T11:18:17.657Z,4.70
2023-04-29T11:19:25.492Z,5.20
2023-04-29T11:20:41.816Z,5.22
2023-04-29T11:21:56.459Z,7.10
2023-04-29T12:07:16.938Z,7.35
2023-04-29T12:08:37.229Z,7.72
2023-04-29T12:09:45.039Z,7.97
2023-04-29T12:10:53.565Z,7.63
2023-04-29T12:11:58.883Z,8.07
2023-04-29T12:13:03.497Z,8.35
2023-04-29T12:14:06.531Z,8.27
2023-04-29T12:15:10.442Z,7.18
2023-04-29T12:16:16.350Z,8.02
2023-04-29T12:17:20.475Z,6.82
2023-04-29T12:18:23.633Z,8.27
2023-04-29T12:19:26.256Z,7.45
2023-04-29T12:20:29.681Z,7.85
2023-04-29T13:13:44.626Z,10.20
2023-04-29T13:20:20.785Z,11.82
2023-04-29T13:21:25.650Z,11.05
2023-04-29T13:22:28.080Z,11.23
2023-04-29T13:23:30.812Z,10.88
2023-04-29T13:24:38.805Z,11.88
2023-04-29T13:25:42.864Z,12.02
2023-04-29T13:26:44.985Z,19.83
2023-04-29T13:27:51.079Z,19.35
2023-04-29T13:28:55.505Z,11.75
2023-04-29T13:29:58.212Z,12.00
2023-04-29T13:31:00.056Z,11.02
2023-04-29T13:32:04.357Z,9.10
2023-04-29T13:33:12.275Z,9.45
2023-04-29T13:34:16.226Z,10.32
2023-04-29T13:35:20.729Z,9.90
2023-04-29T13:36:22.385Z,9.23
2023-04-29T13:37:25.067Z,8.98
2023-04-29T13:38:30.924Z,10.27
2023-04-29T13:39:37.776Z,9.98
2023-04-29T13:40:45.189Z,10.00
2023-04-29T13:41:48.986Z,9.85
2023-04-29T13:42:59.571Z,10.40
2023-04-29T13:44:20.837Z,10.70
2023-04-29T13:45:31.823Z,10.73
2023-04-29T13:46:38.056Z,11.88
2023-04-29T13:48:00.455Z,11.50
2023-04-29T13:49:31.220Z,10.15
2023-04-29T13:51:09.768Z,9.40
2023-04-29T13:52:25.925Z,10.50
2023-04-29T13:53:38.720Z,9.93
2023-04-29T13:57:30.128Z,16.13
2023-04-29T14:00:38.059Z,11.60
2023-04-29T14:02:15.000Z,9.93
2023-04-29T14:03:05.400Z,11.60
2023-04-29T14:04:07.056Z,9.83
2023-04-29T14:05:10.740Z,10.27
2023-04-29T14:06:12.902Z,10.70
2023-04-29T14:07:14.686Z,11.02
2023-04-29T14:08:19.902Z,11.10
2023-04-29T14:09:22.785Z,10.70
2023-04-29T14:10:25.980Z,11.23
2023-04-29T14:11:30.394Z,10.70
2023-04-29T14:12:31.985Z,12.38
2023-04-29T14:13:34.268Z,11.52
2023-04-29T14:14:36.122Z,12.10
2023-04-29T14:15:40.124Z,11.75
2023-04-29T14:16:43.974Z,11.70
2023-04-29T14:17:47.559Z,11.93
2023-04-29T14:18:50.753Z,12.10
2023-04-29T14:19:53.408Z,10.75
2023-04-29T14:20:59.526Z,11.77
2023-04-29T14:22:02.135Z,11.45
2023-04-29T14:23:05.311Z,13.32
2023-04-29T14:24:09.682Z,12.13
2023-04-29T14:25:12.540Z,12.13
2023-04-29T14:26:27.889Z,13.63
2023-04-29T14:27:30.973Z,12.35
2023-04-29T14:28:37.575Z,12.48
2023-04-29T14:29:47.408Z,12.55
2023-04-29T14:30:49.004Z,12.10
2023-04-29T14:31:51.730Z,12.05
2023-04-29T14:32:53.409Z,11.88
2023-04-29T14:33:59.150Z,11.65
2023-04-29T14:35:01.023Z,11.93
2023-04-29T14:36:08.497Z,13.07
2023-04-29T14:37:11.988Z,16.27
2023-04-29T14:38:14.485Z,12.40
2023-04-29T14:39:16.308Z,11.75
2023-04-29T14:40:19.169Z,12.25
2023-04-29T14:41:26.061Z,11.40
2023-04-29T14:42:29.017Z,12.05
2023-04-29T14:43:31.276Z,10.18
2023-04-29T14:44:34.217Z,10.35
2023-04-29T14:45:40.246Z,12.25
2023-04-29T14:46:45.082Z,11.05
2023-04-29T14:47:47.112Z,11.02
2023-04-29T14:48:49.547Z,10.48
2023-04-29T14:49:54.671Z,12.07
2023-04-29T14:51:00.307Z,11.45
2023-04-29T14:52:04.479Z,11.55
2023-04-29T14:53:08.858Z,11.23
2023-04-29T14:54:12.737Z,11.35
2023-04-29T14:55:14.369Z,14.20
2023-04-29T14:56:21.401Z,11.50
2023-04-29T14:57:24.463Z,12.77
2023-04-29T14:58:26.274Z,11.13
2023-04-29T14:59:30.617Z,10.15
2023-04-29T15:00:35.373Z,11.85
2023-04-29T15:01:39.845Z,10.65
2023-04-29T15:02:43.506Z,10.27
2023-04-29T15:03:45.377Z,10.85
2023-04-29T15:04:49.574Z,11.57
2023-04-29T15:05:52.213Z,10.82
2023-04-29T15:06:54.737Z,10.57
2023-04-29T15:08:01.499Z,11.00
2023-04-29T15:09:05.070Z,11.30
2023-04-29T15:10:09.913Z,10.55
2023-04-29T15:11:14.345Z,11.27
2023-04-29T15:12:20.436Z,10.85
2023-04-29T15:13:23.105Z,10.82
2023-04-29T15:14:25.786Z,10.18
2023-04-29T15:15:30.997Z,11.57
2023-04-29T15:16:36.926Z,12.00
2023-04-29T15:17:40.853Z,10.15
2023-04-29T15:18:45.670Z,10.27
2023-04-29T15:19:51.172Z,10.85
2023-04-29T15:20:55.273Z,10.25
2023-04-29T23:18:12.405Z,13.23
2023-04-29T23:19:15.066Z,13.50
2023-04-29T23:20:19.176Z,14.15
2023-04-29T23:34:12.336Z,13.88
2023-04-29T23:35:15.113Z,19.25
2023-04-29T23:36:19.053Z,17.27
2023-04-29T23:37:24.242Z,14.65
2023-04-29T23:48:59.372Z,18.15
2023-04-29T23:50:01.711Z,17.02
2023-04-29T23:51:06.327Z,17.63
2023-04-29T23:52:12.334Z,17.58
2023-04-29T23:53:14.360Z,16.05
2023-04-29T23:54:17.067Z,16.17
2023-04-29T23:55:21.127Z,15.88
2023-04-29T23:56:24.051Z,17.60
2023-04-29T23:57:25.627Z,17.77
2023-04-29T23:58:29.736Z,17.35
2023-04-29T23:59:33.881Z,15.90
